Anvik, Alaska
Current Conditions -  °F | °C
As of 2:56 PM on Friday 31 Oct 2014 (Local Time) from PANV Reporting Station
Overcast Overcast  
Wind Chill: -18°   Ceiling: 1700
Heat Index: -8°   Visibility: 10mi
Dew Point: -12°   Wind: 22mph
Humidity: 73%   Direction: 50°NE
Pressure: 29.18"   Gusts: 28mph
Location:  62.66°N, 160.21°W
Report Text: PANV 312256Z AUTO 05019G24KT 10SM OVC017 M08/M12 A2918 RMK AO1
Loading
Personal Weather Stations






























Interactive Weather Map
Tropical Storm Tracking
New forecast layout! Learn more

10-Day Weather Forecast

Advertisements
Track Severe Weather on mobile